createdAt,value
2022-08-08T00:00:54.517Z,0.00
2022-08-08T00:00:59.996Z,0.00
2022-08-08T00:01:17.233Z,0.00
2022-08-08T00:02:32.815Z,0.00
2022-08-08T00:03:31.645Z,0.00
2022-08-08T00:04:18.202Z,0.00
2022-08-08T00:05:18.523Z,0.00
2022-08-08T00:06:28.307Z,0.00
2022-08-08T00:07:18.960Z,0.00
2022-08-08T00:08:18.383Z,0.00
2022-08-08T00:09:18.553Z,0.00
2022-08-08T00:10:18.787Z,0.00
2022-08-08T00:11:20.076Z,0.00
2022-08-08T00:12:23.899Z,0.00
2022-08-08T00:14:12.171Z,0.00
2022-08-08T00:14:59.120Z,0.00
2022-08-08T00:15:24.344Z,0.00
2022-08-08T00:16:21.529Z,0.00
2022-08-08T00:17:22.469Z,0.00
2022-08-08T00:18:21.179Z,0.00
2022-08-08T00:19:21.373Z,0.00
2022-08-08T00:20:21.643Z,0.00
2022-08-08T00:21:23.123Z,0.00
2022-08-08T00:22:22.248Z,0.00
2022-08-08T00:23:22.574Z,0.00
2022-08-08T00:24:24.230Z,0.00
2022-08-08T00:25:24.177Z,0.00
2022-08-08T00:26:29.109Z,0.00
2022-08-08T00:27:24.726Z,0.00
2022-08-08T00:28:35.864Z,0.00
2022-08-08T00:29:44.822Z,1.00
2022-08-08T00:30:25.620Z,0.00
2022-08-08T00:32:15.319Z,0.00
2022-08-08T00:32:34.512Z,0.00
2022-08-08T00:33:26.442Z,0.00
2022-08-08T00:34:26.885Z,0.00
2022-08-08T00:35:26.125Z,0.00
2022-08-08T00:36:26.393Z,0.00
2022-08-08T00:37:47.917Z,0.00
2022-08-08T00:38:31.509Z,0.00
2022-08-08T00:41:07.521Z,0.00
2022-08-08T00:41:10.273Z,0.00
2022-08-08T00:41:45.169Z,0.00
2022-08-08T00:42:33.182Z,0.00
2022-08-08T00:43:29.686Z,0.00
2022-08-08T00:44:29.791Z,0.00
2022-08-08T00:45:29.534Z,0.00
2022-08-08T00:46:32.082Z,0.00
2022-08-08T00:47:36.817Z,0.00
2022-08-08T00:48:33.620Z,0.00
2022-08-08T00:49:32.176Z,0.00
2022-08-08T00:50:30.488Z,0.00
2022-08-08T00:51:39.038Z,0.00
2022-08-08T00:52:39.228Z,0.00
2022-08-08T00:53:32.428Z,0.00
2022-08-08T00:54:32.664Z,0.00
2022-08-08T00:55:36.128Z,0.00
2022-08-08T00:56:33.221Z,0.00
2022-08-08T00:57:35.940Z,0.00
2022-08-08T00:58:32.789Z,0.00
2022-08-08T00:59:43.693Z,0.00
2022-08-08T01:00:37.404Z,0.00
2022-08-08T01:01:38.251Z,0.00
2022-08-08T01:03:58.026Z,0.00
2022-08-08T01:04:02.512Z,0.00
2022-08-08T01:04:36.419Z,0.00
2022-08-08T01:05:58.499Z,0.00
2022-08-08T01:06:36.016Z,0.00
2022-08-08T01:07:55.428Z,0.00
2022-08-08T01:08:36.646Z,0.00
2022-08-08T01:09:41.341Z,0.00
2022-08-08T01:10:37.240Z,0.00
2022-08-08T01:11:36.508Z,0.00
2022-08-08T01:12:36.738Z,0.00
2022-08-08T01:13:43.966Z,0.00
2022-08-08T01:14:54.855Z,0.00
2022-08-08T01:15:44.274Z,0.00
2022-08-08T01:16:38.854Z,0.00
2022-08-08T01:17:52.103Z,0.00
2022-08-08T01:18:52.749Z,0.00
2022-08-08T01:19:51.919Z,0.00
2022-08-08T01:20:44.321Z,0.00
2022-08-08T01:22:13.537Z,0.00
2022-08-08T01:22:41.099Z,0.00
2022-08-08T01:24:05.652Z,0.00
2022-08-08T01:24:41.250Z,0.00
2022-08-08T01:25:43.137Z,0.00
2022-08-08T01:26:40.688Z,0.00
2022-08-08T01:27:44.011Z,0.00
2022-08-08T01:28:41.287Z,0.00
2022-08-08T01:29:59.418Z,0.00
2022-08-08T01:30:42.901Z,0.00
2022-08-08T01:32:13.464Z,0.00
2022-08-08T01:32:43.504Z,0.00
2022-08-08T01:33:53.925Z,0.00
2022-08-08T01:34:44.091Z,0.00
2022-08-08T01:35:43.404Z,0.00
2022-08-08T01:36:43.682Z,0.00
2022-08-08T01:37:58.165Z,0.00
2022-08-08T01:38:45.306Z,0.00
2022-08-08T01:39:44.648Z,0.00
2022-08-08T01:40:44.822Z,0.00
2022-08-08T01:41:45.498Z,0.00
2022-08-08T01:42:45.387Z,0.00
2022-08-08T01:43:45.674Z,0.00
2022-08-08T01:44:50.553Z,0.00
2022-08-08T01:45:50.481Z,0.00
2022-08-08T01:46:52.420Z,0.00
2022-08-08T01:48:16.780Z,0.00
2022-08-08T01:48:48.326Z,0.00
2022-08-08T01:49:47.393Z,0.00
2022-08-08T01:50:48.903Z,0.00
2022-08-08T01:52:41.245Z,0.00
2022-08-08T01:55:08.534Z,0.00
2022-08-08T01:55:15.423Z,0.00
2022-08-08T01:55:19.229Z,0.00
2022-08-08T01:56:28.680Z,0.00
2022-08-08T01:56:50.365Z,0.00
2022-08-08T01:58:13.134Z,0.00
2022-08-08T01:58:50.963Z,0.00
2022-08-08T02:00:01.699Z,0.00
2022-08-08T02:00:57.498Z,0.00
2022-08-08T02:01:59.754Z,0.00
2022-08-08T02:02:51.954Z,0.00
2022-08-08T02:03:57.140Z,0.00
2022-08-08T02:04:52.559Z,0.00
2022-08-08T02:05:55.711Z,0.00
2022-08-08T02:06:53.158Z,0.00
2022-08-08T02:07:52.367Z,0.00
2022-08-08T02:08:52.699Z,0.00
2022-08-08T02:10:01.577Z,0.00
2022-08-08T02:10:54.332Z,0.00
2022-08-08T02:12:00.587Z,0.00
2022-08-08T02:12:54.950Z,0.00
2022-08-08T02:13:55.659Z,0.00
2022-08-08T02:14:58.921Z,0.00
2022-08-08T02:15:55.808Z,0.00
2022-08-08T02:16:55.107Z,0.00
2022-08-08T02:17:55.333Z,0.00
2022-08-08T02:18:58.847Z,0.00
2022-08-08T02:20:07.456Z,0.00
2022-08-08T02:21:02.273Z,0.00
2022-08-08T02:21:57.543Z,0.00
2022-08-08T02:22:56.923Z,0.00
2022-08-08T02:23:57.102Z,0.00
2022-08-08T02:24:57.365Z,0.00
2022-08-08T02:26:00.387Z,0.00
2022-08-08T02:27:00.839Z,0.00
2022-08-08T02:27:58.306Z,0.00
2022-08-08T02:28:58.665Z,0.00
2022-08-08T02:29:59.004Z,0.00
2022-08-08T02:31:02.288Z,0.00
2022-08-08T02:32:04.783Z,0.00
2022-08-08T02:32:59.931Z,0.00
2022-08-08T02:34:08.657Z,0.00
2022-08-08T02:35:07.458Z,0.00
2022-08-08T02:36:03.842Z,0.00
2022-08-08T02:37:01.162Z,0.00
2022-08-08T02:38:01.439Z,0.00
2022-08-08T02:39:01.653Z,0.00
2022-08-08T02:40:02.963Z,0.00
2022-08-08T02:41:02.257Z,0.00
2022-08-08T02:42:07.780Z,0.00
2022-08-08T02:44:34.949Z,0.00
2022-08-08T02:44:38.507Z,0.00
2022-08-08T02:45:04.302Z,0.00
2022-08-08T02:46:04.591Z,0.00
2022-08-08T02:47:03.800Z,1.00
2022-08-08T02:48:04.090Z,0.00
2022-08-08T02:49:04.307Z,0.00
2022-08-08T02:50:04.642Z,0.00
2022-08-08T02:51:05.279Z,0.00
2022-08-08T02:52:32.590Z,0.00
2022-08-08T02:53:06.478Z,0.00
2022-08-08T02:54:05.723Z,0.00
2022-08-08T02:55:10.357Z,0.00
2022-08-08T02:56:06.399Z,0.00
2022-08-08T02:57:12.169Z,0.00
2022-08-08T02:58:07.874Z,1.00
2022-08-08T02:59:25.991Z,0.00
2022-08-08T03:00:27.090Z,0.00
2022-08-08T03:01:15.034Z,0.00
2022-08-08T03:02:09.012Z,0.00
2022-08-08T03:03:09.225Z,0.00
2022-08-08T03:05:03.242Z,0.00
2022-08-08T03:05:11.019Z,0.00
2022-08-08T03:06:09.053Z,0.00
2022-08-08T03:07:09.373Z,0.00
2022-08-08T03:08:09.690Z,0.00
2022-08-08T03:09:09.893Z,0.00
2022-08-08T03:10:17.927Z,0.00
2022-08-08T03:11:13.981Z,0.00
2022-08-08T03:12:13.940Z,0.00
2022-08-08T03:15:54.306Z,0.00
2022-08-08T03:15:58.356Z,0.00
2022-08-08T03:15:59.341Z,0.00
2022-08-08T03:16:13.015Z,0.00
2022-08-08T03:17:16.112Z,0.00
2022-08-08T03:18:13.715Z,0.00
2022-08-08T03:19:13.358Z,0.00
2022-08-08T03:20:13.162Z,0.00
2022-08-08T03:21:14.661Z,0.00
2022-08-08T03:22:38.834Z,0.00
2022-08-08T03:23:17.717Z,0.00
2022-08-08T03:24:15.602Z,0.00
2022-08-08T03:25:18.457Z,0.00
2022-08-08T03:26:14.993Z,0.00
2022-08-08T03:27:15.293Z,0.00
2022-08-08T03:28:18.784Z,0.00
2022-08-08T03:29:18.728Z,1.00
2022-08-08T03:30:19.011Z,1.00
2022-08-08T03:31:25.092Z,1.00
2022-08-08T03:32:17.531Z,1.00
2022-08-08T03:33:55.738Z,1.00
2022-08-08T03:34:18.107Z,1.00
2022-08-08T03:35:17.451Z,0.00
2022-08-08T03:36:19.634Z,0.00
2022-08-08T03:37:19.966Z,2.00
2022-08-08T03:38:56.355Z,0.00
2022-08-08T03:39:19.620Z,1.00
2022-08-08T03:40:30.431Z,0.00
2022-08-08T03:42:26.868Z,0.00
2022-08-08T03:42:30.385Z,0.00
2022-08-08T03:43:20.541Z,3.00
2022-08-08T03:44:20.434Z,3.00
2022-08-08T03:46:06.781Z,2.00
2022-08-08T03:46:21.419Z,2.00
2022-08-08T03:47:20.878Z,2.00
2022-08-08T03:49:10.056Z,2.00
2022-08-08T03:49:58.519Z,2.00
2022-08-08T03:50:24.582Z,4.00
2022-08-08T03:51:40.219Z,4.00
2022-08-08T03:52:23.079Z,4.00
2022-08-08T03:53:24.210Z,8.00
2022-08-08T03:54:41.563Z,11.00
2022-08-08T03:55:57.394Z,5.00
2022-08-08T03:56:31.873Z,11.00
2022-08-08T03:58:31.359Z,12.00
2022-08-08T03:58:34.736Z,13.00
2022-08-08T03:59:26.219Z,20.00
2022-08-08T04:00:26.103Z,16.00
2022-08-08T04:01:26.114Z,28.00
2022-08-08T04:02:33.244Z,28.00
2022-08-08T04:03:58.044Z,29.00
2022-08-08T04:04:30.695Z,33.00
2022-08-08T04:05:28.151Z,38.00
2022-08-08T04:06:29.905Z,42.00
2022-08-08T04:07:26.311Z,47.00
2022-08-08T04:08:33.104Z,52.00
2022-08-08T04:09:27.861Z,56.00
2022-08-08T04:10:32.279Z,63.00
2022-08-08T04:11:28.479Z,67.00
2022-08-08T04:12:28.015Z,76.00
2022-08-08T04:13:27.984Z,87.00
2022-08-08T04:14:34.358Z,93.00
2022-08-08T04:15:30.349Z,97.00
2022-08-08T04:16:38.591Z,104.00
2022-08-08T04:17:58.120Z,112.00
2022-08-08T04:18:30.345Z,118.00
2022-08-08T04:19:29.662Z,128.00
2022-08-08T04:20:30.902Z,140.00
2022-08-08T04:21:30.138Z,147.00
2022-08-08T04:22:31.736Z,154.00
2022-08-08T04:23:33.423Z,161.00
2022-08-08T04:24:32.108Z,166.00
2022-08-08T04:25:32.978Z,177.00
2022-08-08T04:26:40.092Z,187.00
2022-08-08T04:28:03.646Z,196.00
2022-08-08T04:28:36.823Z,209.00
2022-08-08T04:29:37.262Z,215.00
2022-08-08T04:30:36.692Z,225.00
2022-08-08T04:31:59.053Z,233.00
2022-08-08T04:32:34.305Z,243.00
2022-08-08T04:33:41.501Z,252.00
2022-08-08T04:34:42.753Z,264.00
2022-08-08T04:35:39.590Z,270.00
2022-08-08T04:36:34.354Z,282.00
2022-08-08T04:37:34.651Z,290.00
2022-08-08T04:38:34.903Z,297.00
2022-08-08T04:40:05.869Z,307.00
2022-08-08T04:40:36.590Z,317.00
2022-08-08T04:41:35.693Z,326.00
2022-08-08T04:42:36.909Z,333.00
2022-08-08T04:43:45.348Z,341.00
2022-08-08T04:44:37.586Z,355.00
2022-08-08T04:45:36.927Z,361.00
2022-08-08T04:46:37.140Z,368.00
2022-08-08T04:47:43.422Z,379.00
2022-08-08T04:48:38.767Z,383.00
2022-08-08T04:49:58.959Z,395.00
2022-08-08T04:50:40.255Z,402.00
2022-08-08T04:51:55.125Z,413.00
2022-08-08T04:52:39.881Z,417.00
2022-08-08T04:54:27.487Z,425.00
2022-08-08T04:54:42.450Z,432.00
2022-08-08T04:55:55.447Z,440.00
2022-08-08T04:56:40.988Z,447.00
2022-08-08T04:57:40.297Z,459.00
2022-08-08T04:58:40.627Z,457.00
2022-08-08T04:59:41.962Z,460.00
2022-08-08T05:00:41.206Z,467.00
2022-08-08T05:01:48.772Z,480.00
2022-08-08T05:02:42.814Z,487.00
2022-08-08T05:04:09.527Z,489.00
2022-08-08T05:04:44.615Z,497.00
2022-08-08T05:05:45.471Z,505.00
2022-08-08T05:06:42.730Z,513.00
2022-08-08T05:07:43.009Z,513.00
2022-08-08T05:08:43.229Z,517.00
2022-08-08T05:09:43.470Z,523.00
2022-08-08T05:10:43.754Z,526.00
2022-08-08T05:11:47.536Z,546.00
2022-08-08T05:13:00.240Z,539.00
2022-08-08T05:13:54.929Z,541.00
2022-08-08T05:14:45.881Z,547.00
2022-08-08T05:16:51.481Z,558.00
2022-08-08T05:16:52.551Z,557.00
2022-08-08T05:17:53.594Z,563.00
2022-08-08T05:18:46.936Z,566.00
2022-08-08T05:20:12.849Z,571.00
2022-08-08T05:20:50.049Z,570.00
2022-08-08T05:21:58.053Z,581.00
2022-08-08T05:22:48.061Z,590.00
2022-08-08T05:23:47.905Z,589.00
2022-08-08T05:24:48.721Z,594.00
2022-08-08T05:25:47.838Z,594.00
2022-08-08T05:26:48.761Z,606.00
2022-08-08T05:27:48.349Z,613.00
2022-08-08T05:28:57.536Z,611.00
2022-08-08T05:29:51.734Z,622.00
2022-08-08T05:30:49.114Z,622.00
2022-08-08T05:32:03.614Z,622.00
2022-08-08T05:32:50.944Z,626.00
2022-08-08T05:33:49.949Z,631.00
2022-08-08T05:34:50.186Z,635.00
2022-08-08T05:35:54.209Z,645.00
2022-08-08T05:36:50.915Z,643.00
2022-08-08T05:37:53.869Z,644.00
2022-08-08T05:38:51.483Z,645.00
2022-08-08T05:39:52.861Z,655.00
2022-08-08T05:40:57.548Z,656.00
2022-08-08T05:41:55.039Z,662.00
2022-08-08T05:42:52.381Z,663.00
2022-08-08T05:44:03.511Z,677.00
2022-08-08T05:44:54.045Z,667.00
2022-08-08T05:45:55.138Z,670.00
2022-08-08T05:46:54.625Z,669.00
2022-08-08T05:48:00.543Z,680.00
2022-08-08T05:48:55.219Z,678.00
2022-08-08T05:49:55.908Z,679.00
2022-08-08T05:50:58.997Z,687.00
2022-08-08T05:51:55.869Z,688.00
2022-08-08T05:52:55.095Z,693.00
2022-08-08T05:54:27.477Z,692.00
2022-08-08T05:55:03.270Z,708.00
2022-08-08T05:56:11.052Z,702.00
2022-08-08T05:56:57.334Z,707.00
2022-08-08T05:58:05.591Z,706.00
2022-08-08T05:59:04.009Z,703.00
2022-08-08T06:00:19.818Z,707.00
2022-08-08T06:00:58.714Z,720.00
2022-08-08T06:01:58.174Z,717.00
2022-08-08T06:02:58.285Z,742.00
2022-08-08T06:03:58.621Z,726.00
2022-08-08T06:04:58.869Z,734.00
2022-08-08T06:05:59.562Z,737.00
2022-08-08T06:07:00.301Z,732.00
2022-08-08T06:08:02.481Z,733.00
2022-08-08T06:09:00.438Z,744.00
2022-08-08T06:10:02.087Z,736.00
2022-08-08T06:11:00.397Z,745.00
2022-08-08T06:12:00.733Z,713.00
2022-08-08T06:13:00.977Z,753.00
2022-08-08T06:14:01.296Z,760.00
2022-08-08T06:15:03.315Z,750.00
2022-08-08T06:16:01.752Z,759.00
2022-08-08T06:17:02.529Z,767.00
2022-08-08T06:18:20.368Z,774.00
2022-08-08T06:19:04.003Z,774.00
2022-08-08T06:20:02.783Z,775.00
2022-08-08T06:21:03.399Z,776.00
2022-08-08T06:22:32.075Z,782.00
2022-08-08T06:23:04.591Z,808.00
2022-08-08T06:24:13.544Z,794.00
2022-08-08T06:25:05.213Z,795.00
2022-08-08T06:26:41.465Z,820.00
2022-08-08T06:27:05.697Z,807.00
2022-08-08T06:28:05.082Z,813.00
2022-08-08T06:29:26.030Z,813.00
2022-08-08T06:30:07.407Z,812.00
2022-08-08T06:31:09.551Z,816.00
2022-08-08T06:32:10.702Z,826.00
2022-08-08T06:33:06.492Z,831.00
2022-08-08T06:34:26.728Z,836.00
2022-08-08T06:36:00.461Z,843.00
2022-08-08T06:36:10.114Z,846.00
2022-08-08T06:37:24.615Z,852.00
2022-08-08T06:38:09.244Z,858.00
2022-08-08T06:39:09.241Z,861.00
2022-08-08T06:40:11.403Z,857.00
2022-08-08T06:41:13.172Z,865.00
2022-08-08T06:42:10.140Z,875.00
2022-08-08T06:43:09.899Z,860.00
2022-08-08T06:44:12.205Z,871.00
2022-08-08T06:45:11.011Z,878.00
2022-08-08T06:46:12.785Z,887.00
2022-08-08T06:47:10.635Z,893.00
2022-08-08T06:48:10.807Z,906.00
2022-08-08T06:49:11.232Z,893.00
2022-08-08T06:50:12.822Z,905.00
2022-08-08T06:51:12.635Z,906.00
2022-08-08T06:52:11.898Z,905.00
2022-08-08T06:53:17.241Z,915.00
2022-08-08T06:54:13.447Z,913.00
2022-08-08T06:55:12.706Z,923.00
2022-08-08T06:56:16.565Z,918.00
2022-08-08T06:57:13.340Z,912.00
2022-08-08T06:58:13.605Z,935.00
2022-08-08T06:59:13.899Z,931.00
2022-08-08T07:00:14.230Z,943.00
2022-08-08T07:02:16.413Z,935.00
2022-08-08T07:02:26.465Z,941.00
2022-08-08T07:03:30.739Z,951.00
2022-08-08T07:04:38.540Z,952.00
2022-08-08T07:05:20.545Z,951.00
2022-08-08T07:06:17.307Z,955.00
2022-08-08T07:07:16.321Z,955.00
2022-08-08T07:08:16.710Z,964.00
2022-08-08T07:09:17.863Z,984.00
2022-08-08T07:10:17.154Z,988.00
2022-08-08T07:11:22.435Z,985.00
2022-08-08T07:12:18.706Z,980.00
2022-08-08T07:13:18.003Z,1001.00
2022-08-08T07:14:19.206Z,994.00
2022-08-08T07:15:32.690Z,1001.00
2022-08-08T07:16:19.757Z,1002.00
2022-08-08T07:17:20.186Z,1023.00
2022-08-08T07:18:37.058Z,1028.00
2022-08-08T07:19:20.709Z,1050.00
2022-08-08T07:20:19.958Z,1047.00
2022-08-08T07:21:20.725Z,1036.00
2022-08-08T07:22:20.515Z,1046.00
2022-08-08T07:23:23.326Z,1066.00
2022-08-08T07:24:22.890Z,1056.00
2022-08-08T07:25:21.525Z,1235.00
2022-08-08T07:26:32.682Z,1121.00
2022-08-08T07:27:23.026Z,1098.00
2022-08-08T07:28:23.324Z,1109.00
2022-08-08T07:30:00.551Z,1113.00
2022-08-08T07:30:25.703Z,1151.00
2022-08-08T07:31:23.148Z,1145.00
2022-08-08T07:32:24.376Z,1147.00
2022-08-08T07:33:23.711Z,1181.00
2022-08-08T07:34:31.349Z,1167.00
2022-08-08T07:35:25.291Z,1192.00
2022-08-08T07:36:24.530Z,1199.00
2022-08-08T07:37:24.832Z,1227.00
2022-08-08T07:38:25.794Z,1241.00
2022-08-08T07:39:29.590Z,1236.00
2022-08-08T07:40:29.927Z,1277.00
2022-08-08T07:41:27.038Z,1288.00
2022-08-08T07:42:33.271Z,1305.00
2022-08-08T07:43:35.497Z,1351.00
2022-08-08T07:44:37.074Z,1379.00
2022-08-08T07:45:34.552Z,1415.00
2022-08-08T07:46:30.505Z,1449.00
2022-08-08T07:47:38.905Z,1505.00
2022-08-08T07:48:29.738Z,1494.00
2022-08-08T07:49:28.379Z,1471.00
2022-08-08T07:50:28.712Z,1586.00
2022-08-08T07:51:52.852Z,1642.00
2022-08-08T07:52:30.250Z,1633.00
2022-08-08T07:54:02.256Z,1682.00
2022-08-08T07:54:30.819Z,1535.00
2022-08-08T07:55:30.041Z,1809.00
2022-08-08T07:56:36.883Z,1856.00
2022-08-08T07:57:36.205Z,1806.00
2022-08-08T07:58:30.921Z,1788.00
2022-08-08T07:59:37.779Z,1888.00
2022-08-08T08:00:32.466Z,1958.00
2022-08-08T08:02:34.328Z,1949.00
2022-08-08T08:02:38.617Z,1992.00
2022-08-08T08:03:43.487Z,2261.00
2022-08-08T08:04:33.682Z,1895.00
2022-08-08T08:05:34.047Z,2255.00
2022-08-08T08:06:33.196Z,2130.00
2022-08-08T08:07:37.786Z,2080.00
2022-08-08T08:08:33.766Z,2217.00
2022-08-08T08:09:35.905Z,2096.00
2022-08-08T08:10:35.633Z,2194.00
2022-08-08T08:11:51.259Z,2268.00
2022-08-08T08:12:42.982Z,2238.00
2022-08-08T08:13:42.669Z,2287.00
2022-08-08T08:14:36.427Z,2329.00
2022-08-08T08:15:35.672Z,2490.00
2022-08-08T08:16:36.028Z,2494.00
2022-08-08T08:17:47.808Z,2414.00
2022-08-08T08:18:55.531Z,2486.00
2022-08-08T08:19:45.648Z,2634.00
2022-08-08T08:20:38.280Z,2681.00
2022-08-08T08:21:52.304Z,2781.00
2022-08-08T08:22:38.893Z,2724.00
2022-08-08T08:23:40.679Z,2832.00
2022-08-08T08:24:38.498Z,2947.00
2022-08-08T08:25:45.971Z,2991.00
2022-08-08T08:26:40.080Z,3080.00
2022-08-08T08:27:46.706Z,3291.00
2022-08-08T08:28:40.744Z,3436.00
2022-08-08T08:29:39.998Z,3527.00
2022-08-08T08:30:40.284Z,3707.00
2022-08-08T08:31:41.701Z,3688.00
2022-08-08T08:32:41.112Z,3846.00
2022-08-08T08:33:43.658Z,3978.00
2022-08-08T08:34:43.450Z,4083.00
2022-08-08T08:36:20.067Z,4128.00
2022-08-08T08:36:42.909Z,4162.00
2022-08-08T08:38:13.284Z,4209.00
2022-08-08T08:38:49.580Z,4189.00
2022-08-08T08:40:01.259Z,4415.00
2022-08-08T08:40:44.125Z,4244.00
2022-08-08T08:41:43.357Z,4333.00
2022-08-08T08:42:44.561Z,4303.00
2022-08-08T08:43:45.173Z,4382.00
2022-08-08T08:44:44.143Z,4469.00
2022-08-08T08:45:44.397Z,4328.00
2022-08-08T08:46:47.542Z,4491.00
2022-08-08T08:47:46.060Z,4594.00
2022-08-08T08:48:49.105Z,4462.00
2022-08-08T08:49:45.521Z,4477.00
2022-08-08T08:50:45.806Z,4663.00
2022-08-08T08:51:46.048Z,4494.00
2022-08-08T08:52:59.604Z,4782.00
2022-08-08T08:53:54.665Z,4755.00
2022-08-08T08:54:47.912Z,4834.00
2022-08-08T08:55:47.145Z,4966.00
2022-08-08T08:56:47.403Z,5045.00
2022-08-08T08:57:47.636Z,5370.00
2022-08-08T08:58:50.538Z,4528.00
2022-08-08T09:00:01.896Z,4744.00
2022-08-08T09:01:08.605Z,4401.00
2022-08-08T09:01:49.760Z,4898.00
2022-08-08T09:02:48.974Z,5809.00
2022-08-08T09:03:50.994Z,6076.00
2022-08-08T09:04:50.270Z,6348.00
2022-08-08T09:05:54.811Z,6662.00
2022-08-08T09:06:51.549Z,6178.00
2022-08-08T09:07:52.387Z,5853.00
2022-08-08T09:08:52.047Z,5797.00
2022-08-08T09:09:55.276Z,6829.00
2022-08-08T09:10:52.235Z,7777.00
2022-08-08T09:12:02.298Z,7011.00
2022-08-08T09:12:52.752Z,7062.00
2022-08-08T09:13:52.040Z,6677.00
2022-08-08T09:14:52.246Z,6641.00
2022-08-08T09:15:52.568Z,6636.00
2022-08-08T09:16:53.754Z,6667.00
2022-08-08T09:17:56.070Z,6616.00
2022-08-08T09:18:53.328Z,6786.00
2022-08-08T09:21:58.545Z,7491.00
2022-08-08T09:21:58.679Z,7499.00
2022-08-08T09:22:05.839Z,6780.00
2022-08-08T09:22:58.763Z,6677.00
2022-08-08T09:23:55.011Z,6919.00
2022-08-08T09:24:56.040Z,6662.00
2022-08-08T09:26:02.336Z,6440.00
2022-08-08T09:26:56.700Z,6826.00
2022-08-08T09:27:58.555Z,6810.00
2022-08-08T09:28:56.164Z,7278.00
2022-08-08T09:29:57.028Z,7747.00
2022-08-08T09:30:56.761Z,8154.00
2022-08-08T09:31:57.685Z,7862.00
2022-08-08T09:33:12.255Z,7571.00
2022-08-08T09:34:30.307Z,7622.00
2022-08-08T09:34:58.952Z,7313.00
2022-08-08T09:35:58.228Z,6610.00
2022-08-08T09:37:28.648Z,6461.00
2022-08-08T09:38:02.349Z,6353.00
2022-08-08T09:38:58.960Z,6281.00
2022-08-08T09:39:59.389Z,6343.00
2022-08-08T09:40:59.538Z,6407.00
2022-08-08T09:42:19.983Z,6343.00
2022-08-08T09:43:01.112Z,6218.00
2022-08-08T09:44:05.505Z,6247.00
2022-08-08T09:45:04.218Z,6567.00
2022-08-08T09:46:03.218Z,6394.00
2022-08-08T09:47:05.088Z,6538.00
2022-08-08T09:48:17.926Z,6412.00
2022-08-08T09:49:17.901Z,6318.00
2022-08-08T09:50:04.042Z,6250.00
2022-08-08T09:51:05.073Z,6345.00
2022-08-08T09:52:07.683Z,6358.00
2022-08-08T09:53:23.366Z,6508.00
2022-08-08T09:54:09.634Z,6613.00
2022-08-08T09:55:05.065Z,6665.00
2022-08-08T09:56:06.674Z,6787.00
2022-08-08T09:57:05.202Z,7016.00
2022-08-08T09:58:05.507Z,7141.00
2022-08-08T09:59:20.039Z,7016.00
2022-08-08T10:00:34.091Z,7351.00
2022-08-08T10:01:15.076Z,8082.00
2022-08-08T10:02:12.680Z,8185.00
2022-08-08T10:03:07.037Z,8039.00
2022-08-08T10:04:06.256Z,7800.00
2022-08-08T10:05:15.231Z,8054.00
2022-08-08T10:06:07.841Z,7826.00
2022-08-08T10:07:07.710Z,7960.00
2022-08-08T10:08:09.853Z,8591.00
2022-08-08T10:09:08.342Z,9165.00
2022-08-08T10:10:07.948Z,8862.00
2022-08-08T10:11:12.136Z,8226.00
2022-08-08T10:12:23.168Z,7827.00
2022-08-08T10:13:13.970Z,7979.00
2022-08-08T10:14:27.592Z,11076.00
2022-08-08T10:15:17.374Z,16404.00
2022-08-08T10:16:10.542Z,17194.00
2022-08-08T10:17:38.654Z,18380.00
2022-08-08T10:18:17.436Z,21378.00
2022-08-08T10:19:11.406Z,24630.00
2022-08-08T10:20:10.614Z,23850.00
2022-08-08T10:21:22.682Z,21762.00
2022-08-08T10:22:12.083Z,19042.00
2022-08-08T10:23:13.285Z,19876.00
2022-08-08T10:24:29.468Z,23921.00
2022-08-08T10:25:16.608Z,27157.00
2022-08-08T10:26:12.371Z,25956.00
2022-08-08T10:27:13.826Z,21351.00
2022-08-08T10:28:14.993Z,20433.00
2022-08-08T10:29:13.049Z,26133.00
2022-08-08T10:30:16.169Z,26680.00
2022-08-08T10:31:15.475Z,72756.00
2022-08-08T10:32:13.874Z,72985.00
2022-08-08T10:33:14.112Z,25433.00
2022-08-08T10:34:19.227Z,24157.00
2022-08-08T10:36:01.951Z,23601.00
2022-08-08T10:36:22.239Z,25592.00
2022-08-08T10:37:16.137Z,24798.00
2022-08-08T10:38:16.379Z,24437.00
2022-08-08T10:39:15.762Z,22149.00
2022-08-08T10:40:17.235Z,21189.00
2022-08-08T10:41:16.361Z,20194.00
2022-08-08T10:42:17.246Z,20765.00
2022-08-08T10:43:16.808Z,19994.00
2022-08-08T10:44:17.087Z,20339.00
2022-08-08T10:45:17.382Z,20202.00
2022-08-08T10:46:29.839Z,20800.00
2022-08-08T10:47:20.701Z,21792.00
2022-08-08T10:48:18.160Z,20893.00
2022-08-08T10:49:18.424Z,22164.00
2022-08-08T10:50:19.728Z,19606.00
2022-08-08T10:51:19.012Z,20091.00
2022-08-08T10:52:19.284Z,21251.00
2022-08-08T10:53:20.549Z,21644.00
2022-08-08T10:54:20.877Z,22670.00
2022-08-08T10:55:39.556Z,23247.00
2022-08-08T10:56:27.845Z,22093.00
2022-08-08T10:57:27.636Z,24436.00
2022-08-08T10:58:21.945Z,73505.00
2022-08-08T10:59:21.250Z,73977.00
2022-08-08T11:00:21.555Z,24152.00
2022-08-08T11:01:22.289Z,72613.00
2022-08-08T11:02:22.310Z,26392.00
2022-08-08T11:03:37.158Z,26739.00
2022-08-08T11:04:38.608Z,72633.00
2022-08-08T11:05:24.085Z,73218.00
2022-08-08T11:06:23.355Z,71857.00
2022-08-08T11:08:30.277Z,73415.00
2022-08-08T11:08:38.654Z,74006.00
2022-08-08T11:09:25.232Z,73526.00
2022-08-08T11:10:29.350Z,73831.00
2022-08-08T11:11:32.337Z,73195.00
2022-08-08T11:12:28.584Z,73203.00
2022-08-08T11:13:29.157Z,73744.00
2022-08-08T11:14:27.817Z,73999.00
2022-08-08T11:15:30.622Z,72835.00
2022-08-08T11:16:32.313Z,72685.00
2022-08-08T11:18:00.183Z,73859.00
2022-08-08T11:18:27.741Z,72816.00
2022-08-08T11:19:27.032Z,27354.00
2022-08-08T11:20:28.285Z,27434.00
2022-08-08T11:21:35.169Z,28733.00
2022-08-08T11:22:29.146Z,26316.00
2022-08-08T11:23:31.587Z,25133.00
2022-08-08T11:24:29.089Z,74028.00
2022-08-08T11:25:46.184Z,74870.00
2022-08-08T11:26:30.038Z,73945.00
2022-08-08T11:27:29.349Z,74732.00
2022-08-08T11:28:31.943Z,76698.00
2022-08-08T11:29:50.918Z,76380.00
2022-08-08T11:30:31.724Z,75201.00
2022-08-08T11:31:30.277Z,76516.00
2022-08-08T11:32:31.815Z,74953.00
2022-08-08T11:33:53.334Z,76092.00
2022-08-08T11:34:46.834Z,76722.00
2022-08-08T11:35:42.366Z,73853.00
2022-08-08T11:36:32.611Z,74844.00
2022-08-08T11:38:34.666Z,74922.00
2022-08-08T11:38:35.058Z,74519.00
2022-08-08T11:39:37.125Z,74768.00
2022-08-08T11:40:32.811Z,75709.00
2022-08-08T11:41:33.681Z,75408.00
2022-08-08T11:42:33.520Z,75758.00
2022-08-08T11:43:39.346Z,77063.00
2022-08-08T11:44:34.957Z,76808.00
2022-08-08T11:45:59.916Z,75654.00
2022-08-08T11:46:35.561Z,78121.00
2022-08-08T11:47:39.584Z,77382.00
2022-08-08T11:48:36.020Z,78154.00
2022-08-08T11:49:35.333Z,79536.00
2022-08-08T11:50:35.646Z,78701.00
2022-08-08T11:51:38.267Z,77804.00
2022-08-08T11:52:39.176Z,76336.00
2022-08-08T11:53:42.795Z,76906.00
2022-08-08T11:54:38.282Z,78352.00
2022-08-08T11:55:37.961Z,77597.00
2022-08-08T11:56:42.242Z,77168.00
2022-08-08T11:57:38.475Z,76181.00
2022-08-08T11:58:37.827Z,76730.00
2022-08-08T12:00:01.228Z,75177.00
2022-08-08T12:00:40.167Z,76799.00
2022-08-08T12:01:38.593Z,9305.00
2022-08-08T12:02:38.865Z,76495.00
2022-08-08T12:03:39.163Z,75638.00
2022-08-08T12:04:40.304Z,74371.00
2022-08-08T12:05:39.733Z,76114.00
2022-08-08T12:06:40.672Z,78138.00
2022-08-08T12:07:40.241Z,71573.00
2022-08-08T12:08:40.630Z,81048.00
2022-08-08T12:10:00.277Z,4095.00
2022-08-08T12:10:42.138Z,21906.00
2022-08-08T12:11:42.531Z,9223.00
2022-08-08T12:12:41.829Z,4844.00
2022-08-08T12:14:03.470Z,5044.00
2022-08-08T12:14:43.473Z,17351.00
2022-08-08T12:15:46.899Z,4347.00
2022-08-08T12:16:47.458Z,4963.00
2022-08-08T12:17:51.151Z,2803.00
2022-08-08T12:18:44.573Z,6527.00
2022-08-08T12:19:51.908Z,3876.00
2022-08-08T12:20:45.105Z,3721.00
2022-08-08T12:22:00.492Z,3923.00
2022-08-08T12:22:46.052Z,3855.00
2022-08-08T12:23:59.268Z,3581.00
2022-08-08T12:24:51.495Z,3566.00
2022-08-08T12:25:55.123Z,3405.00
2022-08-08T12:26:46.931Z,3522.00
2022-08-08T12:27:47.904Z,3542.00
2022-08-08T12:28:46.545Z,3332.00
2022-08-08T12:29:46.824Z,3284.00
2022-08-08T12:30:47.918Z,3282.00
2022-08-08T12:31:53.705Z,3242.00
2022-08-08T12:32:48.770Z,3234.00